sensor_id;sensor_type;location;lat;lon;timestamp;temperature;humidity
45843;DHT22;31563;51.744;8.252;2022-08-21T18:28:28;34.70;32.10
45843;DHT22;31563;51.744;8.252;2022-08-21T18:30:57;34.70;32.00
45843;DHT22;31563;51.744;8.252;2022-08-21T18:33:25;34.40;32.00
45843;DHT22;31563;51.744;8.252;2022-08-21T18:35:54;34.00;32.30
45843;DHT22;31563;51.744;8.252;2022-08-21T18:38:23;33.60;33.10
45843;DHT22;31563;51.744;8.252;2022-08-21T18:40:53;33.30;33.30
45843;DHT22;31563;51.744;8.252;2022-08-21T18:43:22;33.10;33.60
45843;DHT22;31563;51.744;8.252;2022-08-21T18:45:52;32.90;34.70
45843;DHT22;31563;51.744;8.252;2022-08-21T18:48:21;32.70;34.60
45843;DHT22;31563;51.744;8.252;2022-08-21T18:50:55;32.60;34.70
45843;DHT22;31563;51.744;8.252;2022-08-21T18:53:25;32.40;34.70
45843;DHT22;31563;51.744;8.252;2022-08-21T18:55:55;32.40;34.70
45843;DHT22;31563;51.744;8.252;2022-08-21T18:58:31;32.20;34.90
45843;DHT22;31563;51.744;8.252;2022-08-21T19:01:02;32.20;34.70
45843;DHT22;31563;51.744;8.252;2022-08-21T19:03:32;32.10;34.90
45843;DHT22;31563;51.744;8.252;2022-08-21T19:06:00;32.00;35.20
45843;DHT22;31563;51.744;8.252;2022-08-21T19:08:29;31.80;35.20
45843;DHT22;31563;51.744;8.252;2022-08-21T19:10:57;31.80;35.30
45843;DHT22;31563;51.744;8.252;2022-08-21T19:13:28;31.60;35.40
45843;DHT22;31563;51.744;8.252;2022-08-21T19:15:58;29.50;39.90
45843;DHT22;31563;51.744;8.252;2022-08-21T19:18:32;28.60;41.80
45843;DHT22;31563;51.744;8.252;2022-08-21T19:21:01;28.20;42.80
45843;DHT22;31563;51.744;8.252;2022-08-21T19:23:30;28.10;43.50
45843;DHT22;31563;51.744;8.252;2022-08-21T19:26:05;27.90;44.00
45843;DHT22;31563;51.744;8.252;2022-08-21T19:28:37;27.70;44.30
45843;DHT22;31563;51.744;8.252;2022-08-21T19:31:31;27.60;44.70
45843;DHT22;31563;51.744;8.252;2022-08-21T19:34:05;27.50;45.00
45843;DHT22;31563;51.744;8.252;2022-08-21T19:36:36;27.40;45.20
45843;DHT22;31563;51.744;8.252;2022-08-21T19:39:09;27.30;45.20
45843;DHT22;31563;51.744;8.252;2022-08-21T19:41:40;27.20;45.60
45843;DHT22;31563;51.744;8.252;2022-08-21T19:44:10;27.10;45.80
45843;DHT22;31563;51.744;8.252;2022-08-21T19:46:42;27.00;45.70
45843;DHT22;31563;51.744;8.252;2022-08-21T19:49:20;26.90;46.00
45843;DHT22;31563;51.744;8.252;2022-08-21T19:51:49;26.90;46.30
45843;DHT22;31563;51.744;8.252;2022-08-21T19:54:23;26.80;46.60
45843;DHT22;31563;51.744;8.252;2022-08-21T19:56:54;26.70;46.70
45843;DHT22;31563;51.744;8.252;2022-08-21T19:59:24;26.70;46.70
45843;DHT22;31563;51.744;8.252;2022-08-21T20:01:54;26.70;47.10
45843;DHT22;31563;51.744;8.252;2022-08-21T20:04:23;26.80;47.30
45843;DHT22;31563;51.744;8.252;2022-08-21T20:06:53;27.40;46.30
45843;DHT22;31563;51.744;8.252;2022-08-21T20:09:21;28.00;45.00
45843;DHT22;31563;51.744;8.252;2022-08-21T20:11:52;28.30;43.40
45843;DHT22;31563;51.744;8.252;2022-08-21T20:14:23;28.70;42.40
45843;DHT22;31563;51.744;8.252;2022-08-21T20:16:58;28.90;41.70
45843;DHT22;31563;51.744;8.252;2022-08-21T20:19:30;29.00;41.60
45843;DHT22;31563;51.744;8.252;2022-08-21T20:22:01;29.00;41.20
45843;DHT22;31563;51.744;8.252;2022-08-21T20:24:29;29.10;41.00
45843;DHT22;31563;51.744;8.252;2022-08-21T20:27:00;29.20;40.70
45843;DHT22;31563;51.744;8.252;2022-08-21T20:29:32;29.20;40.50
45843;DHT22;31563;51.744;8.252;2022-08-21T20:32:06;29.20;40.40
45843;DHT22;31563;51.744;8.252;2022-08-21T20:34:40;29.20;40.40
45843;DHT22;31563;51.744;8.252;2022-08-21T20:37:11;29.10;40.30
45843;DHT22;31563;51.744;8.252;2022-08-21T20:39:48;28.60;52.90
45843;DHT22;31563;51.744;8.252;2022-08-21T20:42:16;29.00;40.00
45843;DHT22;31563;51.744;8.252;2022-08-21T20:44:44;29.00;40.60
45843;DHT22;31563;51.744;8.252;2022-08-21T20:47:14;29.00;40.90
45843;DHT22;31563;51.744;8.252;2022-08-21T20:49:48;29.10;40.90
45843;DHT22;31563;51.744;8.252;2022-08-21T20:52:19;29.20;40.80
45843;DHT22;31563;51.744;8.252;2022-08-21T20:54:52;29.20;40.40
45843;DHT22;31563;51.744;8.252;2022-08-21T20:57:28;29.20;40.70
45843;DHT22;31563;51.744;8.252;2022-08-21T21:00:03;29.30;40.80
45843;DHT22;31563;51.744;8.252;2022-08-21T21:02:41;29.10;40.70
45843;DHT22;31563;51.744;8.252;2022-08-21T21:05:14;29.00;41.20
45843;DHT22;31563;51.744;8.252;2022-08-21T21:07:54;29.20;40.90
45843;DHT22;31563;51.744;8.252;2022-08-21T21:10:28;29.10;41.10
45843;DHT22;31563;51.744;8.252;2022-08-21T21:13:02;29.10;41.40
45843;DHT22;31563;51.744;8.252;2022-08-21T21:15:33;29.20;41.20
45843;DHT22;31563;51.744;8.252;2022-08-21T21:18:10;29.20;41.10
45843;DHT22;31563;51.744;8.252;2022-08-21T21:20:46;29.20;41.10
45843;DHT22;31563;51.744;8.252;2022-08-21T21:23:21;29.20;41.20
45843;DHT22;31563;51.744;8.252;2022-08-21T21:25:56;29.20;41.10
45843;DHT22;31563;51.744;8.252;2022-08-21T21:28:35;29.20;41.10
45843;DHT22;31563;51.744;8.252;2022-08-21T21:31:09;29.20;41.20
45843;DHT22;31563;51.744;8.252;2022-08-21T21:33:38;29.10;41.20
45843;DHT22;31563;51.744;8.252;2022-08-21T21:36:15;29.10;41.20
45843;DHT22;31563;51.744;8.252;2022-08-21T21:38:50;29.10;41.30
45843;DHT22;31563;51.744;8.252;2022-08-21T21:41:26;29.10;41.30
45843;DHT22;31563;51.744;8.252;2022-08-21T21:44:10;29.10;41.30
45843;DHT22;31563;51.744;8.252;2022-08-21T21:46:47;29.00;41.20
45843;DHT22;31563;51.744;8.252;2022-08-21T21:49:33;29.00;41.20
45843;DHT22;31563;51.744;8.252;2022-08-21T21:52:13;29.00;41.30
45843;DHT22;31563;51.744;8.252;2022-08-21T21:55:04;28.90;41.20
45843;DHT22;31563;51.744;8.252;2022-08-21T21:58:14;29.00;41.40
45843;DHT22;31563;51.744;8.252;2022-08-21T22:00:56;28.90;41.30
45843;DHT22;31563;51.744;8.252;2022-08-21T22:03:31;28.90;41.30
45843;DHT22;31563;51.744;8.252;2022-08-21T22:06:04;28.90;41.20
45843;DHT22;31563;51.744;8.252;2022-08-21T22:08:43;28.80;41.20
45843;DHT22;31563;51.744;8.252;2022-08-21T22:11:21;28.70;42.50
45843;DHT22;31563;51.744;8.252;2022-08-21T22:14:03;28.70;42.10
45843;DHT22;31563;51.744;8.252;2022-08-21T22:16:35;28.80;42.20
45843;DHT22;31563;51.744;8.252;2022-08-21T22:19:12;28.80;42.30
45843;DHT22;31563;51.744;8.252;2022-08-21T22:21:48;28.90;42.40
45843;DHT22;31563;51.744;8.252;2022-08-21T22:24:22;28.90;42.50
45843;DHT22;31563;51.744;8.252;2022-08-21T22:27:15;28.90;42.60
45843;DHT22;31563;51.744;8.252;2022-08-21T22:29:48;28.90;42.70
45843;DHT22;31563;51.744;8.252;2022-08-21T22:32:26;28.90;42.80
45843;DHT22;31563;51.744;8.252;2022-08-21T22:35:06;28.90;42.90
45843;DHT22;31563;51.744;8.252;2022-08-21T22:37:37;28.90;42.90
45843;DHT22;31563;51.744;8.252;2022-08-21T22:40:09;28.90;43.10
45843;DHT22;31563;51.744;8.252;2022-08-21T22:42:41;28.80;43.20
45843;DHT22;31563;51.744;8.252;2022-08-21T22:45:09;28.80;43.30
45843;DHT22;31563;51.744;8.252;2022-08-21T22:47:42;28.80;43.30
45843;DHT22;31563;51.744;8.252;2022-08-21T22:50:20;28.80;43.40
45843;DHT22;31563;51.744;8.252;2022-08-21T22:52:58;28.80;43.50
45843;DHT22;31563;51.744;8.252;2022-08-21T22:55:33;28.80;43.60
45843;DHT22;31563;51.744;8.252;2022-08-21T22:58:07;28.80;43.70
45843;DHT22;31563;51.744;8.252;2022-08-21T23:00:47;28.70;43.80
45843;DHT22;31563;51.744;8.252;2022-08-21T23:03:22;28.70;44.00
45843;DHT22;31563;51.744;8.252;2022-08-21T23:05:51;28.70;43.80
45843;DHT22;31563;51.744;8.252;2022-08-21T23:08:25;28.70;43.90
45843;DHT22;31563;51.744;8.252;2022-08-21T23:11:01;28.70;44.00
45843;DHT22;31563;51.744;8.252;2022-08-21T23:13:38;28.70;44.10
45843;DHT22;31563;51.744;8.252;2022-08-21T23:16:19;28.60;44.00
45843;DHT22;31563;51.744;8.252;2022-08-21T23:18:58;28.70;44.20
45843;DHT22;31563;51.744;8.252;2022-08-21T23:21:33;28.60;44.20
45843;DHT22;31563;51.744;8.252;2022-08-21T23:24:17;28.60;44.30
45843;DHT22;31563;51.744;8.252;2022-08-21T23:26:59;28.60;44.30
45843;DHT22;31563;51.744;8.252;2022-08-21T23:29:41;28.60;44.30
45843;DHT22;31563;51.744;8.252;2022-08-21T23:32:31;28.60;44.50
45843;DHT22;31563;51.744;8.252;2022-08-21T23:35:12;28.60;44.40
45843;DHT22;31563;51.744;8.252;2022-08-21T23:37:50;28.60;45.30
45843;DHT22;31563;51.744;8.252;2022-08-21T23:40:35;28.60;44.60
45843;DHT22;31563;51.744;8.252;2022-08-21T23:43:36;28.50;44.60
45843;DHT22;31563;51.744;8.252;2022-08-21T23:46:21;28.50;44.60
45843;DHT22;31563;51.744;8.252;2022-08-21T23:49:23;28.50;44.70
45843;DHT22;31563;51.744;8.252;2022-08-21T23:52:04;28.50;44.70
45843;DHT22;31563;51.744;8.252;2022-08-21T23:54:47;28.40;44.60
45843;DHT22;31563;51.744;8.252;2022-08-21T23:57:36;28.40;44.70
